Terminal Aerodrome Forecast
Issued by NWS Sioux Falls, SD

Home | Current Version | Previous Version | Text Only | Print | Product List | Glossary Off
Versions: 1 2 3 4 5 6 7 8 9 10 11 12 13 14 15 16 17 18 19 20 21 22 23 24 25

000
FTUS43 KFSD 260528
TAFSUX
TAF
KSUX 260528Z 2606/2706 35017G25KT P6SM SCT020 BKN070
     FM261000 33015KT P6SM SKC
     FM261900 34014KT P6SM SCT025
     FM270200 32007KT P6SM SKC=

USA.gov is the U.S. government's official web portal to all federal, state and local government web resources and services.